createdAt,value
2022-11-10T00:00:36.812Z,101215.00
2022-11-10T00:03:47.528Z,101218.00
2022-11-10T00:06:19.588Z,101218.00
2022-11-10T00:09:01.664Z,101219.00
2022-11-10T00:11:35.433Z,101223.00
2022-11-10T00:14:25.611Z,101227.00
2022-11-10T00:17:06.880Z,101240.00
2022-11-10T00:19:39.744Z,101247.00
2022-11-10T00:22:12.445Z,101242.00
2022-11-10T00:24:46.811Z,101237.00
2022-11-10T00:27:19.845Z,101250.00
2022-11-10T00:29:52.770Z,101245.00
2022-11-10T00:32:26.064Z,101247.00
2022-11-10T00:34:59.029Z,101248.00
2022-11-10T00:37:32.075Z,101240.00
2022-11-10T00:40:05.089Z,101250.00
2022-11-10T00:42:38.092Z,101248.00
2022-11-10T00:45:12.185Z,101249.00
2022-11-10T00:47:45.117Z,101243.00
2022-11-10T00:50:18.358Z,101253.00
2022-11-10T00:52:51.813Z,101242.00
2022-11-10T00:55:25.546Z,101249.00
2022-11-10T00:57:59.126Z,101242.00
2022-11-10T01:00:32.890Z,101244.00
2022-11-10T01:03:05.942Z,101250.00
2022-11-10T01:05:40.804Z,101245.00
2022-11-10T01:08:14.206Z,101247.00
2022-11-10T01:10:47.008Z,101243.00
2022-11-10T01:13:20.166Z,101232.00
2022-11-10T01:15:53.364Z,101242.00
2022-11-10T01:18:26.354Z,101239.00
2022-11-10T01:20:59.210Z,101249.00
2022-11-10T01:23:32.536Z,101243.00
2022-11-10T01:26:07.582Z,101233.00
2022-11-10T01:28:41.245Z,101234.00
2022-11-10T01:31:15.896Z,101226.00
2022-11-10T01:33:48.640Z,101229.00
2022-11-10T01:36:21.401Z,101230.00
2022-11-10T01:38:54.194Z,101217.00
2022-11-10T01:41:30.443Z,101221.00
2022-11-10T01:44:26.552Z,101215.00
2022-11-10T01:46:59.684Z,101209.00
2022-11-10T01:49:34.342Z,101215.00
2022-11-10T01:52:18.132Z,101208.00
2022-11-10T01:54:52.939Z,101203.00
2022-11-10T01:57:25.781Z,101205.00
2022-11-10T01:59:59.136Z,101210.00
2022-11-10T02:02:34.241Z,101200.00
2022-11-10T02:05:08.250Z,101210.00
2022-11-10T02:07:41.419Z,101203.00
2022-11-10T02:10:24.457Z,101215.00
2022-11-10T02:12:57.419Z,101208.00
2022-11-10T02:15:30.322Z,101210.00
2022-11-10T02:18:03.264Z,101209.00
2022-11-10T02:20:36.294Z,101197.00
2022-11-10T02:23:20.230Z,101199.00
2022-11-10T02:25:53.397Z,101189.00
2022-11-10T02:28:26.297Z,101183.00
2022-11-10T02:30:59.753Z,101193.00
2022-11-10T02:33:32.777Z,101192.00
2022-11-10T02:36:05.739Z,101182.00
2022-11-10T02:38:42.848Z,101179.00
2022-11-10T02:41:20.150Z,101179.00
2022-11-10T02:43:53.201Z,101177.00
2022-11-10T02:46:26.394Z,101178.00
2022-11-10T02:48:59.141Z,101179.00
2022-11-10T02:51:32.120Z,101183.00
2022-11-10T02:54:04.965Z,101184.00
2022-11-10T02:56:40.578Z,101175.00
2022-11-10T02:59:13.886Z,101170.00
2022-11-10T03:01:48.193Z,101167.00
2022-11-10T03:04:20.979Z,101177.00
2022-11-10T03:06:53.964Z,101182.00
2022-11-10T03:09:26.899Z,101160.00
2022-11-10T03:11:59.757Z,101170.00
2022-11-10T03:14:32.540Z,101174.00
2022-11-10T03:17:05.414Z,101167.00
2022-11-10T03:19:38.293Z,101161.00
2022-11-10T03:22:11.301Z,101169.00
2022-11-10T03:24:48.132Z,101163.00
2022-11-10T03:27:21.095Z,101169.00
2022-11-10T03:29:54.150Z,101162.00
2022-11-10T03:32:27.429Z,101164.00
2022-11-10T03:35:00.338Z,101164.00
2022-11-10T03:37:33.273Z,101174.00
2022-11-10T03:40:06.677Z,101174.00
2022-11-10T03:42:39.972Z,101179.00
2022-11-10T03:45:13.377Z,101173.00
2022-11-10T03:47:49.355Z,101186.00
2022-11-10T03:50:21.824Z,101199.00
2022-11-10T03:52:54.714Z,101184.00
2022-11-10T03:55:27.581Z,101185.00
2022-11-10T03:58:02.105Z,101186.00
2022-11-10T04:00:34.990Z,101183.00
2022-11-10T04:03:08.798Z,101199.00
2022-11-10T04:05:59.367Z,101202.00
2022-11-10T04:08:49.665Z,101197.00
2022-11-10T04:11:40.166Z,101202.00
2022-11-10T04:14:30.983Z,101201.00
2022-11-10T04:17:04.363Z,101205.00
2022-11-10T04:19:37.486Z,101203.00
2022-11-10T04:22:11.790Z,101203.00
2022-11-10T04:24:44.710Z,101208.00
2022-11-10T04:27:17.743Z,101204.00
2022-11-10T04:29:54.853Z,101212.00
2022-11-10T04:32:29.949Z,101211.00
2022-11-10T04:35:07.374Z,101215.00
2022-11-10T04:37:40.430Z,101203.00
2022-11-10T04:40:14.243Z,101179.00
2022-11-10T04:42:47.698Z,101223.00
2022-11-10T04:45:20.820Z,101218.00
2022-11-10T04:47:53.997Z,101232.00
2022-11-10T04:50:26.740Z,101228.00
2022-11-10T04:52:59.689Z,101231.00
2022-11-10T04:55:32.638Z,101227.00
2022-11-10T04:58:05.572Z,101228.00
2022-11-10T05:00:39.396Z,101233.00
2022-11-10T05:03:14.526Z,101215.00
2022-11-10T05:05:48.698Z,101257.00
2022-11-10T05:08:21.558Z,101231.00
2022-11-10T05:10:54.683Z,101234.00
2022-11-10T05:13:27.700Z,101227.00
2022-11-10T05:16:00.628Z,101246.00
2022-11-10T05:18:33.557Z,101226.00
2022-11-10T05:21:10.669Z,101233.00
2022-11-10T05:23:44.557Z,101245.00
2022-11-10T05:26:19.409Z,101235.00
2022-11-10T05:28:52.813Z,101232.00
2022-11-10T05:31:25.905Z,101241.00
2022-11-10T05:33:59.541Z,101234.00
2022-11-10T05:36:32.521Z,101229.00
2022-11-10T05:39:05.195Z,101233.00
2022-11-10T05:41:38.214Z,101215.00
2022-11-10T05:44:11.084Z,101225.00
2022-11-10T05:46:44.642Z,101224.00
2022-11-10T05:49:17.514Z,101225.00
2022-11-10T05:51:50.647Z,101230.00
2022-11-10T05:54:23.387Z,101236.00
2022-11-10T05:56:56.291Z,101241.00
2022-11-10T05:59:29.235Z,101249.00
2022-11-10T06:02:02.185Z,101239.00
2022-11-10T06:04:35.147Z,101243.00
2022-11-10T06:07:09.656Z,101243.00
2022-11-10T06:09:42.969Z,101257.00
2022-11-10T06:12:15.880Z,101255.00
2022-11-10T06:14:49.426Z,101259.00
2022-11-10T06:17:24.679Z,101250.00
2022-11-10T06:19:56.516Z,101262.00
2022-11-10T06:22:32.350Z,101252.00
2022-11-10T06:25:05.435Z,101266.00
2022-11-10T06:27:38.368Z,101264.00
2022-11-10T06:30:12.290Z,101267.00
2022-11-10T06:32:49.551Z,101269.00
2022-11-10T06:35:24.997Z,101276.00
2022-11-10T06:38:08.574Z,101274.00
2022-11-10T06:40:41.635Z,101270.00
2022-11-10T06:43:14.566Z,101275.00
2022-11-10T06:45:47.525Z,101286.00
2022-11-10T06:48:20.380Z,101284.00
2022-11-10T06:50:53.357Z,101279.00
2022-11-10T06:53:27.257Z,101283.00
2022-11-10T06:56:00.356Z,101280.00
2022-11-10T06:58:33.883Z,101289.00
2022-11-10T07:01:07.289Z,101284.00
2022-11-10T07:03:58.507Z,101284.00
2022-11-10T07:06:14.860Z,101299.00
2022-11-10T07:08:48.332Z,101306.00
2022-11-10T07:11:21.275Z,101306.00
2022-11-10T07:13:54.029Z,101305.00
2022-11-10T07:16:30.149Z,101300.00
2022-11-10T07:19:02.884Z,101303.00
2022-11-10T07:21:41.548Z,101306.00
2022-11-10T07:24:17.916Z,101308.00
2022-11-10T07:26:50.949Z,101307.00
2022-11-10T07:29:24.050Z,101310.00
2022-11-10T07:31:57.711Z,101315.00
2022-11-10T07:34:31.163Z,101318.00
2022-11-10T07:37:04.450Z,101307.00
2022-11-10T07:39:37.579Z,101311.00
2022-11-10T07:42:10.972Z,101324.00
2022-11-10T07:44:43.982Z,101342.00
2022-11-10T07:47:17.210Z,101351.00
2022-11-10T07:49:50.713Z,101344.00
2022-11-10T07:52:23.917Z,101349.00
2022-11-10T07:54:57.191Z,101346.00
2022-11-10T07:57:30.443Z,101359.00
2022-11-10T08:00:03.628Z,101365.00
2022-11-10T08:02:36.614Z,101365.00
2022-11-10T08:05:09.971Z,101367.00
2022-11-10T08:07:44.073Z,101360.00
2022-11-10T08:10:17.531Z,101359.00
2022-11-10T08:12:51.674Z,101366.00
2022-11-10T08:15:24.675Z,101371.00
2022-11-10T08:17:58.767Z,101376.00
2022-11-10T08:20:31.971Z,101393.00
2022-11-10T08:23:09.353Z,101384.00
2022-11-10T08:25:42.491Z,101383.00
2022-11-10T08:28:20.292Z,101390.00
2022-11-10T08:30:53.882Z,101389.00
2022-11-10T08:33:27.064Z,101390.00
2022-11-10T08:35:59.860Z,101392.00
2022-11-10T08:38:32.862Z,101392.00
2022-11-10T08:41:06.066Z,101402.00
2022-11-10T08:43:38.976Z,101406.00
2022-11-10T08:46:12.636Z,101404.00
2022-11-10T08:48:45.797Z,101401.00
2022-11-10T08:51:18.850Z,101404.00
2022-11-10T08:53:51.902Z,101418.00
2022-11-10T08:56:24.928Z,101422.00
2022-11-10T08:59:02.215Z,101423.00
2022-11-10T09:01:34.988Z,101406.00
2022-11-10T09:04:07.958Z,101425.00
2022-11-10T09:06:41.097Z,101426.00
2022-11-10T09:09:14.300Z,101428.00
2022-11-10T09:11:47.702Z,101419.00
2022-11-10T09:14:20.619Z,101432.00
2022-11-10T09:16:53.487Z,101430.00
2022-11-10T09:19:26.269Z,101439.00
2022-11-10T09:21:59.355Z,101437.00
2022-11-10T09:24:36.660Z,101435.00
2022-11-10T09:27:09.628Z,101424.00
2022-11-10T09:29:42.610Z,101433.00
2022-11-10T09:32:15.613Z,101431.00
2022-11-10T09:34:52.751Z,101425.00
2022-11-10T09:37:22.516Z,101427.00
2022-11-10T09:39:55.912Z,101427.00
2022-11-10T09:42:47.830Z,101419.00
2022-11-10T09:45:38.850Z,101423.00
2022-11-10T09:48:10.759Z,101425.00
2022-11-10T09:50:55.149Z,101420.00
2022-11-10T09:53:42.027Z,101419.00
2022-11-10T09:56:16.707Z,101418.00
2022-11-10T09:58:50.349Z,101411.00
2022-11-10T10:01:40.474Z,101419.00
2022-11-10T10:04:27.359Z,101431.00
2022-11-10T10:07:35.150Z,101416.00
2022-11-10T10:10:15.984Z,101426.00
2022-11-10T10:13:09.196Z,101428.00
2022-11-10T10:15:52.982Z,101421.00
2022-11-10T10:18:43.379Z,101430.00
2022-11-10T10:21:27.429Z,101431.00
2022-11-10T10:24:13.901Z,101426.00
2022-11-10T10:26:40.104Z,101431.00
2022-11-10T10:29:18.135Z,101414.00
2022-11-10T10:31:55.961Z,101416.00
2022-11-10T10:34:36.351Z,101414.00
2022-11-10T10:37:10.388Z,101416.00
2022-11-10T10:39:45.358Z,101416.00
2022-11-10T10:42:37.963Z,101405.00
2022-11-10T10:45:27.676Z,101412.00
2022-11-10T10:48:01.265Z,101406.00
2022-11-10T10:50:39.919Z,101405.00
2022-11-10T10:53:23.404Z,101407.00
2022-11-10T10:56:03.941Z,101407.00
2022-11-10T10:58:39.146Z,101399.00
2022-11-10T11:01:23.588Z,101412.00
2022-11-10T11:03:57.333Z,101409.00
2022-11-10T11:06:35.215Z,101409.00
2022-11-10T11:09:22.241Z,101409.00
2022-11-10T11:12:09.590Z,101399.00
2022-11-10T11:14:46.085Z,101389.00
2022-11-10T11:17:24.339Z,101400.00
2022-11-10T11:20:00.010Z,101399.00
2022-11-10T11:22:49.943Z,101389.00
2022-11-10T11:25:30.569Z,101382.00
2022-11-10T11:28:23.520Z,101384.00
2022-11-10T11:31:07.833Z,101387.00
2022-11-10T11:33:54.588Z,101371.00
2022-11-10T11:36:32.515Z,101373.00
2022-11-10T11:39:25.831Z,101357.00
2022-11-10T11:42:12.600Z,101352.00
2022-11-10T11:45:03.697Z,101347.00
2022-11-10T11:47:59.782Z,101344.00
2022-11-10T11:50:37.611Z,101332.00
2022-11-10T11:53:30.050Z,101327.00
2022-11-10T11:56:17.374Z,101328.00
2022-11-10T11:59:13.405Z,101325.00
2022-11-10T12:02:04.233Z,101315.00
2022-11-10T12:04:48.319Z,101310.00
2022-11-10T12:07:38.014Z,101317.00
2022-11-10T12:10:40.533Z,101305.00
2022-11-10T12:13:18.732Z,101299.00
2022-11-10T12:16:33.789Z,101302.00
2022-11-10T12:19:10.363Z,101303.00
2022-11-10T12:21:53.997Z,101293.00
2022-11-10T12:24:44.523Z,101286.00
2022-11-10T12:27:22.502Z,101275.00
2022-11-10T12:30:00.499Z,101265.00
2022-11-10T12:32:50.619Z,101265.00
2022-11-10T12:35:35.035Z,101257.00
2022-11-10T12:51:55.039Z,101245.00
2022-11-10T13:18:01.514Z,101198.00
2022-11-10T13:25:49.647Z,101209.00
2022-11-10T13:36:11.306Z,101145.00
2022-11-10T13:39:07.838Z,101125.00
2022-11-10T13:41:46.145Z,101113.00
2022-11-10T13:51:48.929Z,101171.00
2022-11-10T14:05:04.907Z,101102.00
2022-11-10T14:07:46.372Z,101100.00
2022-11-10T14:10:29.183Z,101108.00
2022-11-10T14:13:08.514Z,101101.00
2022-11-10T14:15:54.486Z,101102.00
2022-11-10T14:18:38.059Z,101093.00
2022-11-10T14:21:21.857Z,101077.00
2022-11-10T14:24:16.079Z,101064.00
2022-11-10T14:26:54.763Z,101054.00
2022-11-10T14:29:36.235Z,101042.00
2022-11-10T14:32:23.571Z,101044.00
2022-11-10T14:35:05.782Z,101050.00
2022-11-10T14:37:40.354Z,101047.00
2022-11-10T14:40:15.385Z,101036.00
2022-11-10T14:42:50.015Z,101040.00
2022-11-10T14:45:31.967Z,101024.00
2022-11-10T14:48:05.271Z,101015.00
2022-11-10T14:50:39.201Z,101008.00
2022-11-10T14:53:23.103Z,101010.00
2022-11-10T14:55:56.294Z,101009.00
2022-11-10T14:58:31.376Z,101010.00
2022-11-10T15:01:05.610Z,100993.00
2022-11-10T15:03:46.078Z,100993.00
2022-11-10T15:06:19.069Z,100980.00
2022-11-10T15:08:52.185Z,100988.00
2022-11-10T15:11:45.848Z,100990.00
2022-11-10T15:14:38.029Z,100993.00
2022-11-10T15:17:12.997Z,100991.00
2022-11-10T15:19:55.228Z,100985.00
2022-11-10T15:22:35.393Z,100979.00
2022-11-10T15:25:16.352Z,100964.00
2022-11-10T15:28:06.073Z,100957.00
2022-11-10T15:30:39.059Z,100953.00
2022-11-10T15:33:14.947Z,100947.00
2022-11-10T15:35:48.063Z,100935.00
2022-11-10T15:38:43.912Z,100927.00
2022-11-10T15:41:25.621Z,100910.00
2022-11-10T15:43:55.109Z,100891.00
2022-11-10T15:46:29.357Z,100886.00
2022-11-10T15:49:06.909Z,100874.00
2022-11-10T15:51:40.084Z,100869.00
2022-11-10T15:54:15.907Z,100880.00
2022-11-10T15:56:49.919Z,100865.00
2022-11-10T15:59:23.016Z,100886.00
2022-11-10T16:02:08.316Z,100899.00
2022-11-10T16:04:41.525Z,100883.00
2022-11-10T16:07:14.499Z,100884.00
2022-11-10T16:09:47.399Z,100887.00
2022-11-10T16:12:32.445Z,100881.00
2022-11-10T16:15:05.437Z,100860.00
2022-11-10T16:17:44.394Z,100861.00
2022-11-10T16:20:36.824Z,100833.00
2022-11-10T16:23:14.107Z,100812.00
2022-11-10T16:25:47.203Z,100797.00
2022-11-10T16:28:25.660Z,100783.00
2022-11-10T16:30:59.211Z,100781.00
2022-11-10T16:33:32.072Z,100771.00
2022-11-10T16:36:05.523Z,100771.00
2022-11-10T16:38:38.574Z,100785.00
2022-11-10T16:41:13.178Z,100782.00
2022-11-10T16:43:45.971Z,100766.00
2022-11-10T16:46:24.389Z,100758.00
2022-11-10T16:48:59.616Z,100769.00
2022-11-10T16:51:37.528Z,100763.00
2022-11-10T16:54:11.614Z,100756.00
2022-11-10T16:56:44.796Z,100751.00
2022-11-10T16:59:17.825Z,100739.00
2022-11-10T17:01:51.307Z,100731.00
2022-11-10T17:04:24.200Z,100716.00
2022-11-10T17:06:57.232Z,100726.00
2022-11-10T17:09:30.809Z,100721.00
2022-11-10T17:12:03.874Z,100739.00
2022-11-10T17:14:36.957Z,100743.00
2022-11-10T17:17:11.202Z,100754.00
2022-11-10T17:19:44.129Z,100759.00
2022-11-10T17:22:18.810Z,100781.00
2022-11-10T17:24:53.383Z,100789.00
2022-11-10T17:27:27.521Z,100785.00
2022-11-10T17:30:00.614Z,100789.00
2022-11-10T17:33:02.870Z,100799.00
2022-11-10T17:35:07.642Z,100796.00
2022-11-10T17:37:40.736Z,100782.00
2022-11-10T17:40:27.684Z,100778.00
2022-11-10T17:43:00.791Z,100778.00
2022-11-10T17:45:34.034Z,100767.00
2022-11-10T17:48:07.048Z,100787.00
2022-11-10T17:50:41.099Z,100776.00
2022-11-10T17:53:28.044Z,100782.00
2022-11-10T17:56:01.258Z,100797.00
2022-11-10T17:58:38.482Z,100805.00
2022-11-10T18:01:22.412Z,100792.00
2022-11-10T18:03:55.297Z,100797.00
2022-11-10T18:06:28.407Z,100770.00
2022-11-10T18:09:02.382Z,100792.00
2022-11-10T18:11:35.493Z,100782.00
2022-11-10T18:14:08.291Z,100778.00
2022-11-10T18:16:42.018Z,100766.00
2022-11-10T18:19:15.415Z,100713.00
2022-11-10T18:21:50.800Z,100673.00
2022-11-10T18:24:23.687Z,100629.00
2022-11-10T18:26:56.866Z,100581.00
2022-11-10T18:29:30.148Z,100602.00
2022-11-10T18:32:03.196Z,100659.00
2022-11-10T18:34:36.334Z,100662.00
2022-11-10T18:37:10.518Z,100631.00
2022-11-10T18:39:43.441Z,100609.00
2022-11-10T18:42:16.432Z,100558.00
2022-11-10T18:44:49.445Z,100540.00
2022-11-10T18:47:22.401Z,100576.00
2022-11-10T18:49:56.579Z,100570.00
2022-11-10T18:52:29.651Z,100549.00
2022-11-10T18:55:07.054Z,100520.00
2022-11-10T18:57:40.163Z,100546.00
2022-11-10T19:00:14.628Z,100570.00
2022-11-10T19:02:47.580Z,100609.00
2022-11-10T19:05:20.629Z,100652.00
2022-11-10T19:07:53.562Z,100671.00
2022-11-10T19:10:26.597Z,100680.00
2022-11-10T19:12:59.198Z,100687.00
2022-11-10T19:15:32.036Z,100703.00
2022-11-10T19:18:05.531Z,100687.00
2022-11-10T19:20:39.514Z,100680.00
2022-11-10T19:23:12.428Z,100682.00
2022-11-10T19:25:45.489Z,100672.00
2022-11-10T19:28:18.438Z,100665.00
2022-11-10T19:30:51.400Z,100673.00
2022-11-10T19:33:24.501Z,100655.00
2022-11-10T19:35:57.577Z,100631.00
2022-11-10T19:38:31.086Z,100627.00
2022-11-10T19:41:09.374Z,100601.00
2022-11-10T19:43:47.319Z,100633.00
2022-11-10T19:46:28.488Z,100632.00
2022-11-10T19:49:03.080Z,100634.00
2022-11-10T19:51:38.587Z,100631.00
2022-11-10T19:54:14.005Z,100652.00
2022-11-10T19:56:47.111Z,100686.00
2022-11-10T19:59:21.105Z,100682.00
2022-11-10T20:01:54.139Z,100686.00
2022-11-10T20:04:27.218Z,100685.00
2022-11-10T20:07:17.228Z,100697.00
2022-11-10T20:09:50.384Z,100716.00
2022-11-10T20:12:23.516Z,100712.00
2022-11-10T20:14:56.687Z,100727.00
2022-11-10T20:17:30.076Z,100744.00
2022-11-10T20:20:03.171Z,100766.00
2022-11-10T20:22:36.167Z,100759.00
2022-11-10T20:25:09.687Z,100752.00
2022-11-10T20:27:42.681Z,100755.00
2022-11-10T20:30:23.639Z,100773.00
2022-11-10T20:32:54.302Z,100794.00
2022-11-10T20:35:27.299Z,100783.00
2022-11-10T20:38:00.561Z,100801.00
2022-11-10T20:40:48.645Z,100791.00
2022-11-10T20:43:07.989Z,100797.00
2022-11-10T20:45:41.876Z,100774.00
2022-11-10T20:48:15.190Z,100763.00
2022-11-10T20:50:48.480Z,100750.00
2022-11-10T20:53:21.823Z,100729.00
2022-11-10T20:55:56.195Z,100717.00
2022-11-10T20:58:29.540Z,100690.00
2022-11-10T21:01:08.076Z,100657.00
2022-11-10T21:03:41.287Z,100640.00
2022-11-10T21:06:14.384Z,100659.00
2022-11-10T21:08:47.544Z,100683.00
2022-11-10T21:11:37.945Z,100643.00
2022-11-10T21:14:11.040Z,100626.00
2022-11-10T21:16:44.043Z,100609.00
2022-11-10T21:19:17.350Z,100610.00
2022-11-10T21:21:51.312Z,100607.00
2022-11-10T21:24:24.490Z,100580.00
2022-11-10T21:26:57.669Z,100576.00
2022-11-10T21:29:30.773Z,100564.00
2022-11-10T21:32:03.736Z,100588.00
2022-11-10T21:34:37.551Z,100593.00
2022-11-10T21:37:10.632Z,100579.00
2022-11-10T21:39:44.219Z,100596.00
2022-11-10T21:42:17.741Z,100606.00
2022-11-10T21:44:50.710Z,100606.00
2022-11-10T21:47:23.759Z,100608.00
2022-11-10T21:49:56.518Z,100615.00
2022-11-10T21:52:29.404Z,100603.00
2022-11-10T21:55:02.685Z,100610.00
2022-11-10T21:57:35.556Z,100608.00
2022-11-10T22:00:09.600Z,100607.00
2022-11-10T22:02:42.608Z,100599.00
2022-11-10T22:05:16.039Z,100620.00
2022-11-10T22:07:49.704Z,100611.00
2022-11-10T22:10:26.671Z,100629.00
2022-11-10T22:13:16.908Z,100617.00
2022-11-10T22:16:12.512Z,100609.00
2022-11-10T22:18:47.032Z,100609.00
2022-11-10T22:21:20.393Z,100633.00
2022-11-10T22:24:10.518Z,100633.00
2022-11-10T22:26:43.316Z,100640.00
2022-11-10T22:29:16.223Z,100627.00
2022-11-10T22:31:49.083Z,100633.00
2022-11-10T22:34:22.883Z,100629.00
2022-11-10T22:36:57.125Z,100630.00
2022-11-10T22:39:33.566Z,100627.00
2022-11-10T22:42:23.747Z,100628.00
2022-11-10T22:44:56.839Z,100623.00
2022-11-10T22:47:31.173Z,100619.00
2022-11-10T22:50:03.904Z,100607.00
2022-11-10T22:52:36.716Z,100609.00
2022-11-10T22:55:10.412Z,100606.00
2022-11-10T22:57:43.340Z,100609.00
2022-11-10T23:00:17.622Z,100615.00
2022-11-10T23:02:50.484Z,100609.00
2022-11-10T23:05:23.446Z,100619.00
2022-11-10T23:07:57.509Z,100610.00
2022-11-10T23:10:30.463Z,100608.00
2022-11-10T23:13:03.258Z,100613.00
2022-11-10T23:15:36.522Z,100608.00
2022-11-10T23:18:09.574Z,100603.00
2022-11-10T23:20:42.930Z,100608.00
2022-11-10T23:23:15.866Z,100603.00
2022-11-10T23:25:50.223Z,100596.00
2022-11-10T23:28:22.941Z,100599.00
2022-11-10T23:30:55.993Z,100591.00
2022-11-10T23:33:32.497Z,100587.00
2022-11-10T23:36:02.997Z,100590.00
2022-11-10T23:38:37.411Z,100595.00
2022-11-10T23:41:11.407Z,100579.00
2022-11-10T23:43:44.375Z,100575.00
2022-11-10T23:46:17.386Z,100588.00
2022-11-10T23:48:54.360Z,100574.00
2022-11-10T23:51:27.873Z,100572.00
2022-11-10T23:54:00.635Z,100576.00
2022-11-10T23:56:33.592Z,100574.00
2022-11-10T23:59:06.921Z,100573.00
